Time;durP1;ratioP1;P1;durP2;ratioP2;P2;SDS_P1;SDS_P2;PMS_P1;PMS_P2;Temp;Humidity;BMP_temperature;BMP_pressure;BME280_temperature;BME280_humidity;BME280_pressure;Samples;Min_cycle;Max_cycle;Signal;HPM_P1;HPM_P2
2021/04/03 00:30:40;;;;;;;12.83;2.87;;;;;;;;;;10444072;28;20687;-85
2021/04/03 00:35:44;;;;;;;11.60;2.93;;;;;;;;;;10438455;28;20217;-85
2021/04/03 00:40:47;;;;;;;11.03;3.00;;;;;;;;;;10451878;28;20748;-85
2021/04/03 00:45:57;;;;;;;14.77;3.60;;;;;;;;;;10440671;28;20508;-84
2021/04/03 00:51:02;;;;;;;18.60;3.87;;;;;;;;;;10443154;28;20215;-84
2021/04/03 00:56:04;;;;;;;20.67;4.17;;;;;;;;;;10443439;28;20688;-85
2021/04/03 01:01:09;;;;;;;19.03;4.80;;;;;;;;;;10453139;28;20582;-85
2021/04/03 01:06:11;;;;;;;15.30;3.63;;;;;;;;;;10439464;28;20258;-84
2021/04/03 01:11:13;;;;;;;14.33;4.10;;;;;;;;;;10446676;28;20222;-84
2021/04/03 01:16:17;;;;;;;16.03;3.73;;;;;;;;;;10444627;28;20261;-84
2021/04/03 01:21:24;;;;;;;15.03;3.93;;;;;;;;;;10442718;28;20218;-84
2021/04/03 01:26:38;;;;;;;15.00;3.53;;;;;;;;;;10444371;28;20227;-84
2021/04/03 01:31:41;;;;;;;18.07;3.90;;;;;;;;;;10439798;28;20218;-85
2021/04/03 01:36:49;;;;;;;16.57;3.17;;;;;;;;;;10446261;28;20684;-84
2021/04/03 01:41:57;;;;;;;19.03;4.23;;;;;;;;;;10437296;28;20235;-85
2021/04/03 01:47:01;;;;;;;22.57;4.73;;;;;;;;;;10444914;28;20329;-85
2021/04/03 01:52:03;;;;;;;20.47;4.37;;;;;;;;;;10445036;28;20219;-85
2021/04/03 01:57:06;;;;;;;19.63;3.97;;;;;;;;;;10443798;28;20222;-84
2021/04/03 02:02:09;;;;;;;15.13;3.53;;;;;;;;;;10439706;28;21026;-85
2021/04/03 02:07:11;;;;;;;16.40;3.70;;;;;;;;;;10439313;28;20235;-85
2021/04/03 02:12:16;;;;;;;17.07;3.70;;;;;;;;;;10440948;28;20216;-84
2021/04/03 02:17:19;;;;;;;18.20;3.90;;;;;;;;;;10446050;28;20215;-84
2021/04/03 02:22:21;;;;;;;16.07;3.57;;;;;;;;;;10446206;28;20230;-85
2021/04/03 02:27:23;;;;;;;15.50;3.40;;;;;;;;;;10441619;28;20237;-84
2021/04/03 02:32:26;;;;;;;16.90;3.73;;;;;;;;;;10443130;28;20223;-84
2021/04/03 02:37:28;;;;;;;13.27;3.33;;;;;;;;;;10445349;28;20239;-86
2021/04/03 02:42:30;;;;;;;13.10;3.10;;;;;;;;;;10445111;28;20364;-85
2021/04/03 02:47:37;;;;;;;19.83;4.07;;;;;;;;;;10443541;28;20714;-85
2021/04/03 02:52:39;;;;;;;14.70;3.30;;;;;;;;;;10436022;28;20230;-86
2021/04/03 02:57:42;;;;;;;16.67;3.77;;;;;;;;;;10443094;28;20308;-85
2021/04/03 03:02:46;;;;;;;13.13;3.07;;;;;;;;;;10443113;28;20752;-85
2021/04/03 03:07:49;;;;;;;15.07;3.97;;;;;;;;;;10443608;28;20206;-85
2021/04/03 03:12:51;;;;;;;15.03;3.53;;;;;;;;;;10446240;28;20608;-85
2021/04/03 03:17:55;;;;;;;18.80;4.17;;;;;;;;;;10452146;28;20218;-84
2021/04/03 03:22:58;;;;;;;14.53;3.73;;;;;;;;;;10445604;28;20239;-84
2021/04/03 03:28:00;;;;;;;15.40;3.70;;;;;;;;;;10447391;28;20222;-84
2021/04/03 03:33:02;;;;;;;15.37;3.57;;;;;;;;;;10453003;28;20582;-85
2021/04/03 03:38:04;;;;;;;18.07;4.07;;;;;;;;;;10470647;28;20745;-85
2021/04/03 03:43:09;;;;;;;15.67;3.80;;;;;;;;;;10457736;28;20249;-85
2021/04/03 03:48:12;;;;;;;16.37;3.60;;;;;;;;;;10447858;28;20203;-84
2021/04/03 03:53:14;;;;;;;21.30;3.70;;;;;;;;;;10443495;28;21048;-85
2021/04/03 03:58:15;;;;;;;16.13;3.93;;;;;;;;;;10444580;28;20661;-85
2021/04/03 04:03:18;;;;;;;14.67;3.70;;;;;;;;;;10455549;28;20633;-85
2021/04/03 04:08:21;;;;;;;19.57;3.83;;;;;;;;;;10447837;28;21204;-85
2021/04/03 04:13:23;;;;;;;19.13;3.77;;;;;;;;;;10448158;28;20211;-84
2021/04/03 04:18:25;;;;;;;20.77;4.03;;;;;;;;;;10441470;28;20227;-85
2021/04/03 04:23:27;;;;;;;19.60;4.40;;;;;;;;;;10443925;28;20230;-85
2021/04/03 04:28:30;;;;;;;22.37;3.93;;;;;;;;;;10441117;28;20732;-85
2021/04/03 04:33:33;;;;;;;20.43;4.60;;;;;;;;;;10446844;28;20218;-86
2021/04/03 04:38:35;;;;;;;20.10;4.47;;;;;;;;;;10445950;28;20222;-85
2021/04/03 04:43:37;;;;;;;19.50;4.40;;;;;;;;;;10444019;28;20251;-84
2021/04/03 04:48:40;;;;;;;18.40;3.90;;;;;;;;;;10441524;28;20211;-85
2021/04/03 04:53:42;;;;;;;20.30;3.90;;;;;;;;;;10443759;28;20207;-81
2021/04/03 04:58:44;;;;;;;17.23;4.00;;;;;;;;;;10433814;28;20218;-81
2021/04/03 05:03:46;;;;;;;23.27;4.23;;;;;;;;;;10443695;28;20246;-81
2021/04/03 05:08:48;;;;;;;25.93;4.70;;;;;;;;;;10447948;28;20234;-80
2021/04/03 05:13:50;;;;;;;20.60;4.30;;;;;;;;;;10438421;28;20218;-81
2021/04/03 05:18:53;;;;;;;17.63;3.83;;;;;;;;;;10439817;28;20589;-85
2021/04/03 05:24:10;;;;;;;22.73;4.60;;;;;;;;;;10429694;28;20242;-89
2021/04/03 14:05:37;;;;;;;20.50;4.70;;;;;;;;;;10424088;23;20313;-75
2021/04/03 14:11:08;;;;;;;15.37;3.90;;;;;;;;;;10418068;28;20337;-75
2021/04/03 14:16:18;;;;;;;23.33;4.03;;;;;;;;;;10439896;28;20214;-75
2021/04/03 14:21:46;;;;;;;18.90;4.10;;;;;;;;;;10436980;28;20222;-76
2021/04/03 14:32:44;;;;;;;23.53;4.20;;;;;;;;;;10436001;28;20215;-77
2021/04/03 14:37:46;;;;;;;21.33;3.83;;;;;;;;;;10442023;28;20670;-77
2021/04/03 14:42:48;;;;;;;21.13;4.60;;;;;;;;;;10448263;28;20231;-76
2021/04/03 14:47:51;;;;;;;16.90;3.87;;;;;;;;;;10450083;28;20215;-77
2021/04/03 14:52:53;;;;;;;18.97;4.17;;;;;;;;;;10445410;28;20214;-77
2021/04/03 14:57:55;;;;;;;23.37;4.50;;;;;;;;;;10432012;28;20563;-76
2021/04/03 15:02:57;;;;;;;19.77;4.57;;;;;;;;;;10442057;28;20231;-76
2021/04/03 15:07:59;;;;;;;17.93;4.20;;;;;;;;;;10423938;28;20270;-77
2021/04/03 15:13:01;;;;;;;20.70;4.03;;;;;;;;;;10427108;28;20218;-78
2021/04/03 15:18:04;;;;;;;15.00;3.57;;;;;;;;;;10418890;28;20216;-80
2021/04/03 15:23:06;;;;;;;15.23;3.60;;;;;;;;;;10424840;28;20491;-77
2021/04/03 15:28:09;;;;;;;18.13;4.10;;;;;;;;;;10421695;28;20207;-76
2021/04/03 15:33:12;;;;;;;23.93;4.57;;;;;;;;;;10422164;28;20224;-77
2021/04/03 15:38:14;;;;;;;25.73;4.17;;;;;;;;;;10429500;28;20221;-78
2021/04/03 15:43:16;;;;;;;19.00;3.70;;;;;;;;;;10427891;28;20242;-78
2021/04/03 15:48:18;;;;;;;21.13;3.87;;;;;;;;;;10426097;28;20216;-78
2021/04/03 15:53:20;;;;;;;19.23;3.90;;;;;;;;;;10418222;28;20211;-78
2021/04/03 15:58:23;;;;;;;18.33;3.70;;;;;;;;;;10427183;28;20329;-78
2021/04/03 16:03:26;;;;;;;15.73;4.17;;;;;;;;;;10418959;28;20243;-76
2021/04/03 16:08:27;;;;;;;16.13;4.00;;;;;;;;;;10423886;28;20693;-77
2021/04/03 16:13:29;;;;;;;19.93;4.10;;;;;;;;;;10418635;28;20211;-77
2021/04/03 16:18:32;;;;;;;26.77;4.57;;;;;;;;;;10411627;28;20218;-78
2021/04/03 16:23:35;;;;;;;15.03;3.53;;;;;;;;;;10421316;28;20255;-76
2021/04/03 16:28:37;;;;;;;13.87;4.20;;;;;;;;;;10422725;28;20702;-77
2021/04/03 16:33:40;;;;;;;18.70;3.40;;;;;;;;;;10419287;28;20801;-78
2021/04/03 16:38:42;;;;;;;21.70;4.53;;;;;;;;;;10420594;28;20204;-77
2021/04/03 16:43:44;;;;;;;20.93;4.20;;;;;;;;;;10414661;28;20234;-77
2021/04/03 16:48:47;;;;;;;19.63;4.50;;;;;;;;;;10426851;28;20820;-78
2021/04/03 16:53:49;;;;;;;14.00;3.53;;;;;;;;;;10408951;28;20208;-78
2021/04/03 16:58:52;;;;;;;22.17;3.97;;;;;;;;;;10416589;28;20220;-78
2021/04/03 17:03:55;;;;;;;21.27;3.63;;;;;;;;;;10420267;28;20258;-83
2021/04/03 17:08:57;;;;;;;16.07;4.00;;;;;;;;;;10410393;28;20221;-77
2021/04/03 17:13:59;;;;;;;16.87;4.07;;;;;;;;;;10418286;28;20676;-78
2021/04/03 17:19:02;;;;;;;12.43;3.60;;;;;;;;;;10412429;28;20219;-77
2021/04/03 17:24:04;;;;;;;19.33;3.57;;;;;;;;;;10413014;28;20244;-76
2021/04/03 17:29:06;;;;;;;15.17;3.60;;;;;;;;;;10412879;28;20232;-75
2021/04/03 17:34:08;;;;;;;17.80;4.07;;;;;;;;;;10416764;28;20214;-75
2021/04/03 17:39:10;;;;;;;18.63;3.80;;;;;;;;;;10412106;28;21053;-75
2021/04/03 17:44:12;;;;;;;21.23;3.90;;;;;;;;;;10414763;28;20243;-76
2021/04/03 17:49:15;;;;;;;14.80;3.50;;;;;;;;;;10414739;28;20215;-75
2021/04/03 17:54:17;;;;;;;17.37;3.20;;;;;;;;;;10423342;28;20631;-75
2021/04/03 17:59:19;;;;;;;18.67;3.67;;;;;;;;;;10417123;28;20211;-76
2021/04/03 18:04:21;;;;;;;14.20;3.10;;;;;;;;;;10421067;28;20243;-76
2021/04/03 18:09:23;;;;;;;17.57;3.50;;;;;;;;;;10413855;28;20215;-74
2021/04/03 18:14:25;;;;;;;13.97;3.73;;;;;;;;;;10411141;28;20702;-75
2021/04/03 18:19:29;;;;;;;19.67;3.30;;;;;;;;;;10404414;28;20211;-76
2021/04/03 18:24:31;;;;;;;18.30;4.27;;;;;;;;;;10408803;28;20239;-75
2021/04/03 18:29:44;;;;;;;15.57;3.33;;;;;;;;;;10413694;28;20247;-76
2021/04/03 18:34:47;;;;;;;15.77;3.70;;;;;;;;;;10410030;28;20238;-76
2021/04/03 18:39:49;;;;;;;19.00;3.47;;;;;;;;;;10411984;28;20226;-75
2021/04/03 18:44:51;;;;;;;17.63;3.80;;;;;;;;;;10403517;28;20719;-75
2021/04/03 18:49:53;;;;;;;19.83;4.47;;;;;;;;;;10416873;28;20248;-76
2021/04/03 18:54:55;;;;;;;18.10;3.93;;;;;;;;;;10407320;28;20302;-76
2021/04/03 18:59:57;;;;;;;17.90;3.37;;;;;;;;;;10417994;28;20267;-77
2021/04/03 19:05:00;;;;;;;21.37;3.70;;;;;;;;;;10406260;28;20243;-76
2021/04/03 19:10:02;;;;;;;18.20;3.77;;;;;;;;;;10409869;28;20207;-75
2021/04/03 19:15:05;;;;;;;20.87;4.10;;;;;;;;;;10404116;28;20223;-75
2021/04/03 19:20:09;;;;;;;18.40;4.40;;;;;;;;;;10419549;28;20572;-75
2021/04/03 19:25:11;;;;;;;13.77;3.97;;;;;;;;;;10401201;28;20469;-75
2021/04/03 19:30:13;;;;;;;13.23;3.87;;;;;;;;;;10404521;28;20220;-75
2021/04/03 19:35:15;;;;;;;14.33;3.53;;;;;;;;;;10410936;28;20212;-74
2021/04/03 19:40:17;;;;;;;18.67;3.87;;;;;;;;;;10401881;28;20200;-75
2021/04/03 19:45:19;;;;;;;19.00;3.57;;;;;;;;;;10414958;28;20242;-75
2021/04/03 19:50:22;;;;;;;19.10;3.37;;;;;;;;;;10409759;28;20217;-75
2021/04/03 19:55:23;;;;;;;15.80;3.67;;;;;;;;;;10422377;28;20647;-75
2021/04/03 20:00:25;;;;;;;20.30;3.80;;;;;;;;;;10412779;28;20616;-74
2021/04/03 20:05:28;;;;;;;16.00;3.60;;;;;;;;;;10418470;28;20243;-75
2021/04/03 20:10:30;;;;;;;14.43;3.30;;;;;;;;;;10421248;28;20222;-76
2021/04/03 20:15:31;;;;;;;14.33;3.40;;;;;;;;;;10422626;28;20759;-75
2021/04/03 20:20:35;;;;;;;16.23;3.87;;;;;;;;;;10421467;28;20552;-75
2021/04/03 20:25:37;;;;;;;23.17;3.97;;;;;;;;;;10419796;28;20239;-75
2021/04/03 20:30:39;;;;;;;17.80;3.80;;;;;;;;;;10409613;28;20228;-75
2021/04/03 20:35:42;;;;;;;20.33;5.07;;;;;;;;;;10419627;28;20207;-75
2021/04/03 20:40:44;;;;;;;12.93;3.67;;;;;;;;;;10412918;28;20982;-75
2021/04/03 20:45:45;;;;;;;22.53;4.83;;;;;;;;;;10420566;28;20234;-75
2021/04/03 20:50:48;;;;;;;16.90;4.10;;;;;;;;;;10409357;28;20695;-75
2021/04/03 20:55:50;;;;;;;18.87;3.60;;;;;;;;;;10414334;28;20219;-74
2021/04/03 21:00:52;;;;;;;16.33;4.00;;;;;;;;;;10410148;28;20219;-76
2021/04/03 21:05:55;;;;;;;16.47;3.67;;;;;;;;;;10420980;28;20219;-76
2021/04/03 21:10:57;;;;;;;17.23;3.70;;;;;;;;;;10412137;28;20226;-75
2021/04/03 21:15:58;;;;;;;16.77;3.93;;;;;;;;;;10419329;28;20623;-75
2021/04/03 21:21:01;;;;;;;15.67;3.67;;;;;;;;;;10416609;28;20693;-76
2021/04/03 21:26:03;;;;;;;17.97;3.87;;;;;;;;;;10407879;28;20239;-75
2021/04/03 21:31:05;;;;;;;16.27;3.90;;;;;;;;;;10406186;28;20224;-75
2021/04/03 21:36:08;;;;;;;19.57;3.90;;;;;;;;;;10415678;28;20346;-76
2021/04/03 21:41:10;;;;;;;11.87;3.57;;;;;;;;;;10415362;28;20216;-75
2021/04/03 21:46:12;;;;;;;12.77;3.47;;;;;;;;;;10419631;28;20754;-75
2021/04/03 21:51:15;;;;;;;15.83;3.87;;;;;;;;;;10414626;28;20225;-74
2021/04/03 21:56:18;;;;;;;20.23;3.57;;;;;;;;;;10417960;28;20203;-75
2021/04/03 22:01:20;;;;;;;12.93;3.53;;;;;;;;;;10420443;28;21910;-74
2021/04/03 22:06:23;;;;;;;19.20;3.93;;;;;;;;;;10413086;28;20239;-76
2021/04/03 22:11:27;;;;;;;19.00;4.03;;;;;;;;;;10424549;28;20219;-75
2021/04/03 22:16:31;;;;;;;15.60;4.07;;;;;;;;;;10430823;28;20203;-76
2021/04/03 22:21:34;;;;;;;21.50;3.77;;;;;;;;;;10413743;28;20928;-75
2021/04/03 22:26:35;;;;;;;14.50;3.80;;;;;;;;;;10416006;28;20239;-74
2021/04/03 22:31:37;;;;;;;14.57;3.20;;;;;;;;;;10419744;28;20684;-75
2021/04/03 22:36:40;;;;;;;17.13;4.10;;;;;;;;;;10428233;28;20215;-75
2021/04/03 22:41:43;;;;;;;16.27;3.60;;;;;;;;;;10420174;28;20367;-74
2021/04/03 22:46:45;;;;;;;18.23;3.70;;;;;;;;;;10425084;28;20246;-74
2021/04/03 22:51:48;;;;;;;15.07;3.73;;;;;;;;;;10418428;28;20216;-74
2021/04/03 22:56:50;;;;;;;14.87;3.53;;;;;;;;;;10417864;28;20662;-75
2021/04/03 23:01:52;;;;;;;18.30;3.90;;;;;;;;;;10421227;28;20215;-75
2021/04/03 23:06:54;;;;;;;19.57;3.70;;;;;;;;;;10415645;28;20243;-75
2021/04/03 23:11:56;;;;;;;20.77;3.57;;;;;;;;;;10413593;28;20441;-75
2021/04/03 23:16:58;;;;;;;12.13;3.20;;;;;;;;;;10420232;28;20234;-75
2021/04/03 23:22:01;;;;;;;16.90;3.37;;;;;;;;;;10416654;28;20218;-75
2021/04/03 23:27:03;;;;;;;21.43;3.63;;;;;;;;;;10423439;28;20719;-75
2021/04/03 23:32:05;;;;;;;15.77;3.23;;;;;;;;;;10427671;28;20224;-75
2021/04/03 23:37:07;;;;;;;13.67;3.40;;;;;;;;;;10431790;28;20691;-76
2021/04/03 23:42:09;;;;;;;18.27;3.37;;;;;;;;;;10420537;28;20220;-76
2021/04/03 23:47:11;;;;;;;14.23;3.17;;;;;;;;;;10425438;28;20228;-75
2021/04/03 23:52:14;;;;;;;22.03;3.70;;;;;;;;;;10429277;28;20677;-75
2021/04/03 23:57:19;;;;;;;16.77;3.20;;;;;;;;;;10426936;28;20890;-76
